WetterOnline ( https://www.wetteronline.de )

Wetter aktuell Greifswalder Bodden

Aktuelles Wetter: Greifswalder Oie (12m)

6-stündlich | Neueste Meldungen
Ortszeit Temperatur Wetter
So, 26.05. 8:00 10.9° C bedeckt
So, 26.05. 2:00 12.0° C bewölkt
Sa, 25.05. 20:00 13.9° C bedeckt
Sa, 25.05. 14:00 12.3° C bedeckt
Sa, 25.05. 8:00 11.8° C bedeckt
Sa, 25.05. 2:00 12.8° C bewölkt
Fr, 24.05. 20:00 16.0° C bewölkt
Fr, 24.05. 14:00 17.8° C wolkig
Ortszeit Temperatur Wetter
So, 26.05. 8:30 11.2° C bedeckt
So, 26.05. 8:20 11.2° C bedeckt
So, 26.05. 8:10 11.2° C bedeckt
So, 26.05. 8:00 10.9° C bedeckt
So, 26.05. 7:50 10.9° C bedeckt
So, 26.05. 7:40 10.7° C bedeckt
So, 26.05. 7:30 10.7° C wolkig
So, 26.05. 7:00 10.9° C bedeckt
So, 26.05. 6:30 10.7° C wolkig
So, 26.05. 6:00 10.8° C bewölkt
So, 26.05. 5:30 11.0° C bewölkt
Ortszeit Relative Feuchte Sichtweite
So, 26.05. 8:00 81% -
So, 26.05. 2:00 75% 60 km
Sa, 25.05. 20:00 76% 30 km
Sa, 25.05. 14:00 78% 22 km
Sa, 25.05. 8:00 73% 50 km
Sa, 25.05. 2:00 78% 70 km
Fr, 24.05. 20:00 75% 24 km
Fr, 24.05. 14:00 70% 19 km
Ortszeit Relative Feuchte Sichtweite
So, 26.05. 8:30 78% 24 km
So, 26.05. 8:20 78% -
So, 26.05. 8:10 80% -
So, 26.05. 8:00 81% -
So, 26.05. 7:50 81% -
So, 26.05. 7:40 81% -
So, 26.05. 7:30 82% 40 km
So, 26.05. 7:00 83% 40 km
So, 26.05. 6:30 82% 40 km
So, 26.05. 6:00 82% 35 km
So, 26.05. 5:30 81% 65 km
Ortszeit Niederschlagsmenge Niederschlagsart
So, 26.05. 8:00 0.0 l/m2 in 12 Std. -
So, 26.05. 2:00 0.0 l/m2 in 6 Std. -
Sa, 25.05. 20:00 0.0 l/m2 in 12 Std. -
Sa, 25.05. 14:00 0.0 l/m2 in 6 Std. -
Sa, 25.05. 8:00 0.0 l/m2 in 12 Std. -
Sa, 25.05. 2:00 0.0 l/m2 in 6 Std. -
Fr, 24.05. 20:00 0.0 l/m2 in 12 Std. -
Fr, 24.05. 14:00 0.0 l/m2 in 6 Std. -
Ortszeit Niederschlagsmenge Niederschlagsart
So, 26.05. 8:30 0.0 l/m2 in 1 Std. -
So, 26.05. 8:20 keine Meldung -
So, 26.05. 8:10 keine Meldung -
So, 26.05. 8:00 0.0 l/m2 in 1 Std. -
So, 26.05. 7:50 keine Meldung -
So, 26.05. 7:40 keine Meldung -
So, 26.05. 7:30 0.0 l/m2 in 1 Std. -
So, 26.05. 7:00 0.0 l/m2 in 1 Std. -
So, 26.05. 6:30 0.0 l/m2 in 1 Std. -
So, 26.05. 6:00 0.0 l/m2 in 1 Std. -
So, 26.05. 5:30 0.0 l/m2 in 1 Std. -
Ortszeit Stärke Spitze Richtung
km/h Bft. km/h Grad Sektor
So, 26.05. 8:00 32 5 50 240° SW
So, 26.05. 2:00 37 5 56 270° W
Sa, 25.05. 20:00 28 4 43 270° W
Sa, 25.05. 14:00 36 5 43 260° W
Sa, 25.05. 8:00 32 5 47 280° W
Sa, 25.05. 2:00 37 5 44 300° NW
Fr, 24.05. 20:00 18 3 32 310° NW
Fr, 24.05. 14:00 14 3 36 310° NW
Ortszeit Stärke Spitze Richtung
km/h Bft. km/h Grad Sektor
So, 26.05. 8:30 35 5 43 230° SW
So, 26.05. 8:20 35 5 - 230° SW
So, 26.05. 8:10 35 5 - 230° SW
So, 26.05. 8:00 32 5 43 240° SW
So, 26.05. 7:50 32 5 - 240° SW
So, 26.05. 7:40 33 5 - 230° SW
So, 26.05. 7:30 35 5 43 240° SW
So, 26.05. 7:00 39 6 46 250° W
So, 26.05. 6:30 37 5 46 250° W
So, 26.05. 6:00 40 6 50 260° W
So, 26.05. 5:30 40 6 47 260° W
Ortszeit Untergrenze Bedeckung Gattung
total tief tief mittel hoch
So, 26.05. 8:00 3300 m 8/8 8/8 - - -
So, 26.05. 2:00 720 m 7/8 7/8 - - -
Sa, 25.05. 20:00 1080 m 8/8 8/8 - - -
Sa, 25.05. 14:00 510 m 8/8 8/8 - - -
Sa, 25.05. 8:00 750 m 8/8 8/8 - - -
Sa, 25.05. 2:00 720 m 8/8 7/8 - - -
Fr, 24.05. 20:00 2100 m 7/8 7/8 - - -
Fr, 24.05. 14:00 5700 m 8/8 8/8 - - -
Ortszeit Bedeckungsgrad in Achtel und Wolkenuntergrenze
So, 26.05. 8:30 3(3300m) 6(4500m) 8(5700m)
So, 26.05. 8:20 3(3300m) 6(4500m) 8(5700m)
So, 26.05. 8:10 2(3300m) 7(5400m) 8(6000m)
So, 26.05. 8:00 7(3300m) 8(4200m) 8(4800m)
So, 26.05. 7:50 7(3300m) 8(4200m) 8(4800m)
So, 26.05. 7:40 6(3300m) 8(3900m) 8(5100m)
So, 26.05. 7:30 1(420m) 8(3600m) 8(4200m)
So, 26.05. 7:00 8(3900m) 8(6000m)
So, 26.05. 6:30 1(1410m) 8(4200m) 8(6300m)
So, 26.05. 6:00 7(1320m) 8(4800m) 8(6600m)
So, 26.05. 5:30 6(1320m) 8(5100m) 8(6000m)
Ortszeit Luftdruck NN (hPa) Tendenz (hPa in 3 Std.)
So, 26.05. 8:00 1011 - 0,6
So, 26.05. 2:00 1013 - 0,7
Sa, 25.05. 20:00 1013 - 0,6
Sa, 25.05. 14:00 1014 + 0,5
Sa, 25.05. 8:00 1012 + 0,9
Sa, 25.05. 2:00 1011 0,0
Fr, 24.05. 20:00 1010 - 0,7
Fr, 24.05. 14:00 1012 - 1,0
Ortszeit Luftdruck NN (hPa) Tendenz (hPa in 3 Std.)
So, 26.05. 8:30 1011 - 0,9
So, 26.05. 8:20 1011 keine Meldung
So, 26.05. 8:10 1011 keine Meldung
So, 26.05. 8:00 1011 - 0,6
So, 26.05. 7:50 1011 keine Meldung
So, 26.05. 7:40 1011 keine Meldung
So, 26.05. 7:30 1011 - 0,4
So, 26.05. 7:00 1011 - 0,6
So, 26.05. 6:30 1012 - 0,6
So, 26.05. 6:00 1012 - 0,6
So, 26.05. 5:30 1012 - 0,7
Ortszeit Schneehöhe (cm)
So, 26.05. 8:00 -
So, 26.05. 2:00 -
Sa, 25.05. 20:00 -
Sa, 25.05. 14:00 -
Sa, 25.05. 8:00 -
Sa, 25.05. 2:00 -
Fr, 24.05. 20:00 -
Fr, 24.05. 14:00 -
Ortszeit Schneehöhe (cm)
So, 26.05. 8:30 -
So, 26.05. 8:20 -
So, 26.05. 8:10 -
So, 26.05. 8:00 -
So, 26.05. 7:50 -
So, 26.05. 7:40 -
So, 26.05. 7:30 -
So, 26.05. 7:00 -
So, 26.05. 6:30 -
So, 26.05. 6:00 -
So, 26.05. 5:30 -
Link zu dieser Seite / Seite empfehlen

Das Wetter in ...